Time;durP1;ratioP1;P1;durP2;ratioP2;P2;SDS_P1;SDS_P2;PMS_P1;PMS_P2;Temp;Humidity;BMP_temperature;BMP_pressure;BME280_temperature;BME280_humidity;BME280_pressure;Samples;Min_cycle;Max_cycle;Signal;HPM_P1;HPM_P2
2022/03/05 00:01:57;;;;;;;15.25;7.50;;;;;;;;;;5054438;28;20052;-56
2022/03/05 00:04:23;;;;;;;16.90;7.38;;;;;;;;;;5056567;28;20474;-56
2022/03/05 00:06:49;;;;;;;14.73;6.93;;;;;;;;;;5058202;28;20021;-56
2022/03/05 00:09:17;;;;;;;14.98;7.15;;;;;;;;;;5054652;28;20078;-56
2022/03/05 00:11:43;;;;;;;15.40;6.30;;;;;;;;;;5056746;28;20116;-56
2022/03/05 00:14:08;;;;;;;15.15;6.75;;;;;;;;;;5063603;28;20155;-56
2022/03/05 00:16:33;;;;;;;17.45;7.57;;;;;;;;;;5053734;28;20189;-56
2022/03/05 00:18:59;;;;;;;14.65;6.53;;;;;;;;;;5061684;28;20039;-56
2022/03/05 00:21:25;;;;;;;16.88;7.25;;;;;;;;;;5064374;28;20024;-56
2022/03/05 00:23:50;;;;;;;15.50;7.28;;;;;;;;;;5060360;28;20468;-57
2022/03/05 00:26:17;;;;;;;17.50;7.18;;;;;;;;;;5063179;28;20025;-56
2022/03/05 00:28:42;;;;;;;16.83;6.90;;;;;;;;;;5061521;28;20025;-56
2022/03/05 00:31:08;;;;;;;17.58;6.60;;;;;;;;;;5061075;28;20024;-56
2022/03/05 00:33:33;;;;;;;13.23;5.75;;;;;;;;;;5060411;28;20072;-56
2022/03/05 00:35:59;;;;;;;16.30;6.90;;;;;;;;;;5055050;28;20113;-56
2022/03/05 00:38:25;;;;;;;14.95;6.55;;;;;;;;;;5058056;28;20048;-56
2022/03/05 00:40:50;;;;;;;15.38;6.45;;;;;;;;;;5062935;28;20020;-56
2022/03/05 00:43:15;;;;;;;14.73;6.47;;;;;;;;;;5060431;28;20459;-55
2022/03/05 00:45:41;;;;;;;15.02;6.10;;;;;;;;;;5056442;28;20037;-56
2022/03/05 00:48:07;;;;;;;12.50;5.82;;;;;;;;;;5055415;28;20082;-54
2022/03/05 00:50:33;;;;;;;12.43;6.00;;;;;;;;;;5063163;28;20032;-55
2022/03/05 00:52:58;;;;;;;17.60;5.90;;;;;;;;;;5067841;28;20032;-55
2022/03/05 00:55:24;;;;;;;17.63;6.97;;;;;;;;;;5060268;28;20024;-55
2022/03/05 00:57:49;;;;;;;16.60;6.50;;;;;;;;;;5054938;28;20425;-55
2022/03/05 01:00:15;;;;;;;15.90;6.68;;;;;;;;;;5058143;28;20401;-55
2022/03/05 01:02:40;;;;;;;18.70;7.78;;;;;;;;;;5056321;28;20085;-55
2022/03/05 01:05:06;;;;;;;15.55;6.53;;;;;;;;;;5054923;28;20021;-55
2022/03/05 01:07:32;;;;;;;16.70;6.88;;;;;;;;;;5058710;28;20032;-56
2022/03/05 01:09:57;;;;;;;18.45;7.63;;;;;;;;;;5057220;28;20074;-55
2022/03/05 01:12:22;;;;;;;16.20;6.95;;;;;;;;;;5060639;28;20077;-56
2022/03/05 01:14:49;;;;;;;18.30;7.53;;;;;;;;;;5062435;28;20480;-56
2022/03/05 01:17:14;;;;;;;20.02;8.38;;;;;;;;;;5052084;28;20033;-56
2022/03/05 01:19:40;;;;;;;18.77;8.27;;;;;;;;;;5059801;28;20024;-57
2022/03/05 01:22:05;;;;;;;19.88;7.97;;;;;;;;;;5065181;28;20029;-56
2022/03/05 01:24:31;;;;;;;21.23;7.60;;;;;;;;;;5057409;28;20461;-55
2022/03/05 01:26:56;;;;;;;17.52;7.28;;;;;;;;;;5061374;28;20029;-55
2022/03/05 01:29:22;;;;;;;16.58;7.30;;;;;;;;;;5060036;28;20040;-57
2022/03/05 01:31:47;;;;;;;17.17;7.53;;;;;;;;;;5055361;28;20035;-55
2022/03/05 01:34:13;;;;;;;16.85;6.90;;;;;;;;;;5064401;28;20040;-56
2022/03/05 01:36:38;;;;;;;14.52;7.28;;;;;;;;;;5054764;28;20032;-55
2022/03/05 01:39:04;;;;;;;15.55;6.78;;;;;;;;;;5054852;28;20024;-56
2022/03/05 01:41:30;;;;;;;13.05;6.53;;;;;;;;;;5061053;28;20021;-55
2022/03/05 01:43:56;;;;;;;13.93;6.47;;;;;;;;;;5055237;28;20032;-56
2022/03/05 01:46:36;;;;;;;17.15;6.50;;;;;;;;;;5054914;28;20020;-55
2022/03/05 01:49:05;;;;;;;15.23;7.35;;;;;;;;;;5051374;28;20239;-55
2022/03/05 01:51:30;;;;;;;16.92;6.72;;;;;;;;;;5053750;28;20063;-56
2022/03/05 01:53:56;;;;;;;19.73;7.93;;;;;;;;;;5058817;28;20056;-56
2022/03/05 01:56:24;;;;;;;15.07;7.47;;;;;;;;;;5056560;28;20037;-56
2022/03/05 01:58:49;;;;;;;18.50;7.38;;;;;;;;;;5050152;28;20035;-55
2022/03/05 02:01:15;;;;;;;18.55;8.55;;;;;;;;;;5060238;28;20025;-56
2022/03/05 02:03:41;;;;;;;18.80;7.97;;;;;;;;;;5061799;28;20051;-56
2022/03/05 02:06:07;;;;;;;15.20;6.93;;;;;;;;;;5060150;28;20114;-55
2022/03/05 02:08:32;;;;;;;17.85;8.40;;;;;;;;;;5052930;28;20024;-57
2022/03/05 02:10:58;;;;;;;17.52;7.68;;;;;;;;;;5056597;28;20033;-56
2022/03/05 02:13:23;;;;;;;20.85;7.38;;;;;;;;;;5061490;28;20140;-56
2022/03/05 02:15:56;;;;;;;18.75;8.20;;;;;;;;;;5064963;28;20110;-56
2022/03/05 02:18:22;;;;;;;18.95;8.32;;;;;;;;;;5060225;28;20036;-56
2022/03/05 02:20:49;;;;;;;15.90;7.30;;;;;;;;;;5052578;28;20025;-56
2022/03/05 02:23:15;;;;;;;16.58;8.20;;;;;;;;;;5061411;28;20051;-56
2022/03/05 02:26:02;;;;;;;22.55;7.55;;;;;;;;;;5051440;28;20488;-55
2022/03/05 02:28:30;;;;;;;23.15;8.50;;;;;;;;;;5058420;28;20024;-56
2022/03/05 02:30:56;;;;;;;18.13;7.80;;;;;;;;;;5058517;28;20074;-55
2022/03/05 02:33:21;;;;;;;15.43;7.40;;;;;;;;;;5063301;28;20025;-56
2022/03/05 02:35:47;;;;;;;21.88;8.65;;;;;;;;;;5063830;28;20028;-55
2022/03/05 02:38:14;;;;;;;23.48;8.25;;;;;;;;;;5062478;28;20487;-55
2022/03/05 02:40:41;;;;;;;17.83;8.10;;;;;;;;;;5063743;28;20491;-56
2022/03/05 02:43:08;;;;;;;21.40;8.57;;;;;;;;;;5063019;28;20114;-56
2022/03/05 02:45:33;;;;;;;24.40;8.63;;;;;;;;;;5059728;28;20032;-56
2022/03/05 02:48:01;;;;;;;23.25;8.57;;;;;;;;;;5056656;28;20031;-55
2022/03/05 02:50:26;;;;;;;18.33;7.60;;;;;;;;;;5060210;28;20036;-55
2022/03/05 02:52:52;;;;;;;25.90;9.68;;;;;;;;;;5059591;28;20078;-56
2022/03/05 02:55:17;;;;;;;19.50;8.60;;;;;;;;;;5061018;28;20391;-56
2022/03/05 02:57:43;;;;;;;21.35;8.32;;;;;;;;;;5059526;28;20108;-56
2022/03/05 03:00:10;;;;;;;23.80;9.57;;;;;;;;;;5063683;28;20078;-56
2022/03/05 03:02:35;;;;;;;20.15;8.65;;;;;;;;;;5056485;28;20118;-56
2022/03/05 03:05:01;;;;;;;20.60;8.75;;;;;;;;;;5057607;28;20033;-54
2022/03/05 03:07:26;;;;;;;19.13;8.57;;;;;;;;;;5053716;28;20033;-55
2022/03/05 03:09:52;;;;;;;22.50;8.93;;;;;;;;;;5057661;28;20071;-55
2022/03/05 03:12:17;;;;;;;21.17;8.63;;;;;;;;;;5067519;28;20027;-56
2022/03/05 03:14:43;;;;;;;20.90;8.57;;;;;;;;;;5068991;28;20055;-55
2022/03/05 03:17:08;;;;;;;21.23;8.55;;;;;;;;;;5061265;28;20037;-54
2022/03/05 03:19:34;;;;;;;20.25;8.68;;;;;;;;;;5057134;28;20064;-55
2022/03/05 03:21:59;;;;;;;19.60;8.82;;;;;;;;;;5063302;28;20522;-56
2022/03/05 03:24:25;;;;;;;16.98;7.90;;;;;;;;;;5062266;28;20028;-55
2022/03/05 03:26:50;;;;;;;17.92;7.10;;;;;;;;;;5063397;28;20021;-56
2022/03/05 03:29:16;;;;;;;16.35;7.10;;;;;;;;;;5066688;28;20120;-55
2022/03/05 03:31:41;;;;;;;16.02;7.05;;;;;;;;;;5058341;28;20024;-55
2022/03/05 03:34:07;;;;;;;16.13;6.97;;;;;;;;;;5064320;28;20111;-56
2022/03/05 03:36:32;;;;;;;21.77;8.00;;;;;;;;;;5057759;28;20120;-55
2022/03/05 03:38:57;;;;;;;19.45;7.30;;;;;;;;;;5057200;28;20538;-57
2022/03/05 03:41:23;;;;;;;15.75;8.07;;;;;;;;;;5055037;28;20487;-55
2022/03/05 03:43:48;;;;;;;18.48;8.02;;;;;;;;;;5054934;28;20101;-55
2022/03/05 03:46:14;;;;;;;17.08;7.78;;;;;;;;;;5062030;28;20044;-53
2022/03/05 03:48:39;;;;;;;21.75;8.82;;;;;;;;;;5061847;28;20036;-55
2022/03/05 03:51:05;;;;;;;25.05;9.65;;;;;;;;;;5062162;28;20024;-55
2022/03/05 03:53:31;;;;;;;26.15;10.95;;;;;;;;;;5065934;28;20036;-55
2022/03/05 03:55:56;;;;;;;31.83;11.18;;;;;;;;;;5063935;28;20031;-55
2022/03/05 03:58:22;;;;;;;35.08;13.40;;;;;;;;;;5061838;28;20039;-56
2022/03/05 04:00:47;;;;;;;33.60;13.80;;;;;;;;;;5058027;28;20017;-54
2022/03/05 04:03:13;;;;;;;37.40;14.88;;;;;;;;;;5052944;28;20109;-55
2022/03/05 04:05:38;;;;;;;39.85;15.00;;;;;;;;;;5061646;28;20020;-56
2022/03/05 04:10:48;;;;;;;34.15;13.48;;;;;;;;;;5056679;28;20407;-55
2022/03/05 04:13:14;;;;;;;32.03;13.75;;;;;;;;;;5059405;28;20021;-55
2022/03/05 04:15:39;;;;;;;35.42;14.45;;;;;;;;;;5058934;28;20037;-57
2022/03/05 04:18:06;;;;;;;33.08;13.10;;;;;;;;;;5052568;28;20472;-55
2022/03/05 04:20:32;;;;;;;36.55;13.07;;;;;;;;;;5060184;28;20044;-55
2022/03/05 04:22:58;;;;;;;34.25;13.52;;;;;;;;;;5064417;28;20034;-54
2022/03/05 04:25:25;;;;;;;29.50;12.07;;;;;;;;;;5057504;28;20096;-55
2022/03/05 04:27:50;;;;;;;34.00;12.38;;;;;;;;;;5065109;28;20086;-55
2022/03/05 04:30:16;;;;;;;33.53;12.77;;;;;;;;;;5061842;28;20020;-53
2022/03/05 04:32:41;;;;;;;31.33;13.35;;;;;;;;;;5064961;28;20032;-55
2022/03/05 04:35:08;;;;;;;30.25;12.75;;;;;;;;;;5047909;28;20031;-57
2022/03/05 04:37:34;;;;;;;35.78;13.43;;;;;;;;;;5052668;28;20037;-56
2022/03/05 04:40:00;;;;;;;32.70;13.70;;;;;;;;;;5062131;28;20075;-57
2022/03/05 04:42:25;;;;;;;38.85;14.07;;;;;;;;;;5054312;28;20480;-55
2022/03/05 04:44:51;;;;;;;40.83;13.05;;;;;;;;;;5064140;28;20032;-56
2022/03/05 04:47:16;;;;;;;36.63;13.60;;;;;;;;;;5061164;28;20483;-55
2022/03/05 04:49:42;;;;;;;35.53;13.43;;;;;;;;;;5055880;28;20056;-55
2022/03/05 04:52:07;;;;;;;34.80;13.38;;;;;;;;;;5058873;28;20130;-56
2022/03/05 04:54:33;;;;;;;36.72;15.23;;;;;;;;;;5065046;28;20037;-57
2022/03/05 04:56:59;;;;;;;31.63;12.85;;;;;;;;;;5061611;28;20024;-55
2022/03/05 04:59:24;;;;;;;36.53;13.02;;;;;;;;;;5059155;28;20031;-56
2022/03/05 05:01:50;;;;;;;35.45;14.00;;;;;;;;;;5061324;28;20036;-55
2022/03/05 05:04:15;;;;;;;32.47;13.02;;;;;;;;;;5050277;28;20025;-55
2022/03/05 05:06:41;;;;;;;32.80;12.30;;;;;;;;;;5063545;28;20111;-55
2022/03/05 05:09:06;;;;;;;32.80;11.85;;;;;;;;;;5058512;28;20039;-53
2022/03/05 05:11:32;;;;;;;34.97;12.70;;;;;;;;;;5056710;28;20028;-55
2022/03/05 05:13:57;;;;;;;27.80;12.02;;;;;;;;;;5062113;28;20524;-55
2022/03/05 05:16:23;;;;;;;36.35;12.27;;;;;;;;;;5060480;28;20389;-54
2022/03/05 05:21:32;;;;;;;32.10;11.95;;;;;;;;;;5053637;28;20171;-56
2022/03/05 05:23:58;;;;;;;29.10;11.45;;;;;;;;;;5055136;28;20053;-56
2022/03/05 05:26:23;;;;;;;28.67;11.20;;;;;;;;;;5059267;28;20025;-55
2022/03/05 05:28:49;;;;;;;28.90;12.05;;;;;;;;;;5062821;28;20028;-55
2022/03/05 05:31:14;;;;;;;33.67;11.32;;;;;;;;;;5061632;28;20380;-55
2022/03/05 05:33:44;;;;;;;32.55;13.05;;;;;;;;;;5061958;28;20036;-56
2022/03/05 05:36:12;;;;;;;36.95;12.75;;;;;;;;;;5052655;28;20116;-55
2022/03/05 05:38:39;;;;;;;33.05;11.65;;;;;;;;;;5054102;28;20507;-56
2022/03/05 05:41:05;;;;;;;34.33;12.98;;;;;;;;;;5053604;28;20108;-55
2022/03/05 05:43:30;;;;;;;37.45;14.13;;;;;;;;;;5056394;28;20173;-55
2022/03/05 05:45:55;;;;;;;34.72;14.02;;;;;;;;;;5058398;28;20055;-54
2022/03/05 05:48:21;;;;;;;37.05;13.57;;;;;;;;;;5051679;28;20111;-55
2022/03/05 05:50:46;;;;;;;35.45;14.05;;;;;;;;;;5056936;28;20079;-55
2022/03/05 05:53:12;;;;;;;33.50;13.15;;;;;;;;;;5060630;28;20093;-55
2022/03/05 05:55:37;;;;;;;41.38;14.95;;;;;;;;;;5058485;28;20059;-55
2022/03/05 05:58:03;;;;;;;35.78;13.73;;;;;;;;;;5054963;28;20032;-55
2022/03/05 06:00:28;;;;;;;50.63;18.88;;;;;;;;;;5054166;28;20476;-54
2022/03/05 06:02:54;;;;;;;37.08;16.02;;;;;;;;;;5056548;28;20032;-55
2022/03/05 06:05:19;;;;;;;50.55;22.60;;;;;;;;;;5050786;28;20032;-55
2022/03/05 06:07:45;;;;;;;54.40;20.45;;;;;;;;;;5054780;28;20399;-55
2022/03/05 06:10:10;;;;;;;52.88;23.73;;;;;;;;;;5059327;28;20059;-57
2022/03/05 06:12:36;;;;;;;72.45;27.73;;;;;;;;;;5058467;28;20028;-57
2022/03/05 06:15:03;;;;;;;51.80;19.45;;;;;;;;;;5064047;28;20098;-57
2022/03/05 06:17:29;;;;;;;53.95;19.67;;;;;;;;;;5062990;28;20059;-57
2022/03/05 06:19:55;;;;;;;54.10;19.55;;;;;;;;;;5069358;28;20051;-57
2022/03/05 06:22:20;;;;;;;45.33;16.98;;;;;;;;;;5059525;28;20103;-56
2022/03/05 06:24:46;;;;;;;42.85;15.65;;;;;;;;;;5059148;28;20017;-56
2022/03/05 06:27:11;;;;;;;33.17;14.50;;;;;;;;;;5064183;28;20021;-56
2022/03/05 06:29:36;;;;;;;36.78;14.85;;;;;;;;;;5066187;28;20040;-57
2022/03/05 06:32:02;;;;;;;51.33;20.75;;;;;;;;;;5060641;28;20103;-57
2022/03/05 06:34:28;;;;;;;45.95;18.15;;;;;;;;;;5063063;28;20063;-56
2022/03/05 06:36:55;;;;;;;43.10;17.73;;;;;;;;;;5057569;28;20499;-58
2022/03/05 06:39:20;;;;;;;38.30;17.88;;;;;;;;;;5069007;28;20028;-57
2022/03/05 06:41:46;;;;;;;38.25;16.08;;;;;;;;;;5065232;28;20090;-56
2022/03/05 06:44:12;;;;;;;39.90;15.45;;;;;;;;;;5061557;28;20040;-56
2022/03/05 06:46:37;;;;;;;46.80;16.88;;;;;;;;;;5061564;28;20029;-57
2022/03/05 06:49:03;;;;;;;46.92;17.30;;;;;;;;;;5058325;28;20043;-56
2022/03/05 06:51:28;;;;;;;51.63;19.80;;;;;;;;;;5064088;28;20032;-56
2022/03/05 06:53:54;;;;;;;58.28;20.70;;;;;;;;;;5063207;28;20415;-57
2022/03/05 06:56:19;;;;;;;86.75;29.45;;;;;;;;;;5061634;28;20475;-57
2022/03/05 06:58:45;;;;;;;76.25;27.42;;;;;;;;;;5055420;28;20472;-57
2022/03/05 07:01:10;;;;;;;74.93;28.92;;;;;;;;;;5057456;28;20109;-57
2022/03/05 07:03:36;;;;;;;60.22;23.35;;;;;;;;;;5060310;28;20431;-57
2022/03/05 07:06:02;;;;;;;61.50;23.58;;;;;;;;;;5064609;28;20451;-57
2022/03/05 07:08:28;;;;;;;62.53;24.13;;;;;;;;;;5054852;28;20035;-57
2022/03/05 07:10:53;;;;;;;53.78;22.80;;;;;;;;;;5062248;28;20020;-57
2022/03/05 07:13:19;;;;;;;51.22;20.92;;;;;;;;;;5058742;28;20104;-57
2022/03/05 07:15:44;;;;;;;61.25;23.75;;;;;;;;;;5064658;28;20166;-56
2022/03/05 07:18:10;;;;;;;63.60;23.88;;;;;;;;;;5053915;28;20452;-56
2022/03/05 07:20:35;;;;;;;75.95;26.33;;;;;;;;;;5058947;28;20032;-56
2022/03/05 07:23:01;;;;;;;53.35;19.20;;;;;;;;;;5057515;28;20021;-56
2022/03/05 07:25:26;;;;;;;61.67;23.90;;;;;;;;;;5056681;28;20214;-57
2022/03/05 07:27:51;;;;;;;61.72;22.52;;;;;;;;;;5058222;28;20476;-57
2022/03/05 07:30:17;;;;;;;52.83;20.60;;;;;;;;;;5057968;28;20028;-56
2022/03/05 07:32:44;;;;;;;52.25;20.08;;;;;;;;;;5062218;28;20371;-56
2022/03/05 07:35:09;;;;;;;50.22;19.50;;;;;;;;;;5062791;28;20112;-57
2022/03/05 07:37:35;;;;;;;48.53;19.05;;;;;;;;;;5058653;28;20116;-56
2022/03/05 07:40:01;;;;;;;45.80;17.42;;;;;;;;;;5053632;28;20391;-58
2022/03/05 07:42:26;;;;;;;46.28;18.00;;;;;;;;;;5052798;28;20029;-56
2022/03/05 07:44:52;;;;;;;46.75;18.45;;;;;;;;;;5061661;28;20028;-57
2022/03/05 07:47:17;;;;;;;51.55;19.60;;;;;;;;;;5059744;28;20464;-57
2022/03/05 07:49:42;;;;;;;40.83;16.23;;;;;;;;;;5061669;28;20074;-57
2022/03/05 07:52:08;;;;;;;44.75;15.90;;;;;;;;;;5061948;28;20380;-56
2022/03/05 07:54:34;;;;;;;48.35;15.88;;;;;;;;;;5052565;28;20033;-56
2022/03/05 07:56:59;;;;;;;58.88;18.38;;;;;;;;;;5055890;28;20028;-56
2022/03/05 07:59:24;;;;;;;47.75;16.17;;;;;;;;;;5053590;28;20064;-56
2022/03/05 08:01:50;;;;;;;42.45;16.20;;;;;;;;;;5055778;28;20059;-58
2022/03/05 08:04:16;;;;;;;40.72;15.52;;;;;;;;;;5066643;28;20449;-58
2022/03/05 08:06:41;;;;;;;41.97;15.40;;;;;;;;;;5058853;28;20471;-60
2022/03/05 08:09:07;;;;;;;41.63;14.95;;;;;;;;;;5056455;28;20067;-58
2022/03/05 08:11:32;;;;;;;41.70;14.57;;;;;;;;;;5055160;28;20102;-59
2022/03/05 08:13:58;;;;;;;43.17;15.05;;;;;;;;;;5054209;28;20071;-59
2022/03/05 08:16:23;;;;;;;45.25;16.65;;;;;;;;;;5017650;28;1162763;-58
2022/03/05 08:18:49;;;;;;;41.42;15.15;;;;;;;;;;5062836;28;20448;-58
2022/03/05 08:21:14;;;;;;;35.08;12.80;;;;;;;;;;5058606;28;20397;-59
2022/03/05 08:23:40;;;;;;;46.38;18.40;;;;;;;;;;5061140;28;20048;-58
2022/03/05 08:26:10;;;;;;;43.45;15.40;;;;;;;;;;5059337;28;20468;-60
2022/03/05 08:28:36;;;;;;;40.63;16.10;;;;;;;;;;5056081;28;20028;-58
2022/03/05 08:31:01;;;;;;;40.17;15.52;;;;;;;;;;5057467;28;20027;-59
2022/03/05 08:33:27;;;;;;;41.85;16.08;;;;;;;;;;5062130;28;20103;-58
2022/03/05 08:35:52;;;;;;;43.63;16.73;;;;;;;;;;5059462;28;20036;-57
2022/03/05 08:38:17;;;;;;;40.90;16.83;;;;;;;;;;5055155;28;20356;-58
2022/03/05 08:40:43;;;;;;;45.60;16.48;;;;;;;;;;5053514;28;20025;-59
2022/03/05 08:43:08;;;;;;;47.10;18.50;;;;;;;;;;5059868;28;20032;-59
2022/03/05 08:45:34;;;;;;;44.55;17.50;;;;;;;;;;5058603;28;20062;-58
2022/03/05 08:47:59;;;;;;;36.35;14.93;;;;;;;;;;5058335;28;20029;-59
2022/03/05 08:50:25;;;;;;;38.05;14.45;;;;;;;;;;5054300;28;20089;-58
2022/03/05 08:52:50;;;;;;;37.58;14.10;;;;;;;;;;5053988;28;20028;-58
2022/03/05 08:55:16;;;;;;;40.58;14.82;;;;;;;;;;5063919;28;20039;-59
2022/03/05 08:57:43;;;;;;;34.97;14.02;;;;;;;;;;5055653;28;20039;-58
2022/03/05 09:00:10;;;;;;;38.92;14.50;;;;;;;;;;5050732;28;20082;-57
2022/03/05 09:02:36;;;;;;;35.55;13.35;;;;;;;;;;5055578;28;20031;-59
2022/03/05 09:05:03;;;;;;;38.85;15.40;;;;;;;;;;5058089;28;20287;-60
2022/03/05 09:07:29;;;;;;;34.30;13.93;;;;;;;;;;5060161;28;20028;-59
2022/03/05 09:09:54;;;;;;;37.28;14.68;;;;;;;;;;5059206;28;20021;-59
2022/03/05 09:12:19;;;;;;;38.92;15.35;;;;;;;;;;5059572;28;20051;-59
2022/03/05 09:14:46;;;;;;;33.85;14.25;;;;;;;;;;5051157;28;20499;-60
2022/03/05 09:17:13;;;;;;;39.92;14.63;;;;;;;;;;5054176;28;20138;-58
2022/03/05 09:19:38;;;;;;;33.83;13.75;;;;;;;;;;5058663;28;20025;-59
2022/03/05 09:22:07;;;;;;;34.30;13.20;;;;;;;;;;5059495;28;20476;-60
2022/03/05 09:24:32;;;;;;;33.00;13.93;;;;;;;;;;5062089;28;20032;-58
2022/03/05 09:26:58;;;;;;;31.75;13.18;;;;;;;;;;5053415;28;20086;-59
2022/03/05 09:29:24;;;;;;;27.42;11.40;;;;;;;;;;5054650;28;20032;-59
2022/03/05 09:31:49;;;;;;;28.25;12.52;;;;;;;;;;5059218;28;20031;-60
2022/03/05 09:34:15;;;;;;;27.50;10.85;;;;;;;;;;5056660;28;20158;-58
2022/03/05 09:36:40;;;;;;;30.67;12.10;;;;;;;;;;5058866;28;20033;-61
2022/03/05 09:39:06;;;;;;;27.17;11.20;;;;;;;;;;5052635;28;20021;-60
2022/03/05 09:41:31;;;;;;;25.23;11.30;;;;;;;;;;5063135;28;20043;-62
2022/03/05 09:43:57;;;;;;;28.30;11.48;;;;;;;;;;5059111;28;20463;-61
2022/03/05 09:46:22;;;;;;;25.50;10.93;;;;;;;;;;5060767;28;20095;-60
2022/03/05 09:48:52;;;;;;;25.27;10.90;;;;;;;;;;5058370;28;20077;-60
2022/03/05 09:51:20;;;;;;;;;;;;;;;;;;5052791;28;20036;-60
2022/03/05 09:53:46;;;;;;;27.10;10.57;;;;;;;;;;5058774;28;19947;-60
2022/03/05 09:56:11;;;;;;;22.30;9.70;;;;;;;;;;5056278;28;20118;-61
2022/03/05 09:58:37;;;;;;;24.55;9.90;;;;;;;;;;5061414;28;20029;-61
2022/03/05 10:01:02;;;;;;;21.20;9.75;;;;;;;;;;5051235;28;20033;-60
2022/03/05 10:03:28;;;;;;;20.05;9.07;;;;;;;;;;5063792;28;20028;-62
2022/03/05 10:06:13;;;;;;;17.95;7.82;;;;;;;;;;5063581;28;20028;-61
2022/03/05 10:08:38;;;;;;;17.42;8.15;;;;;;;;;;5056126;28;20142;-61
2022/03/05 10:11:06;;;;;;;17.58;8.25;;;;;;;;;;5056019;28;20480;-60
2022/03/05 10:13:33;;;;;;;13.70;6.65;;;;;;;;;;5062475;28;20082;-65
2022/03/05 10:16:04;;;;;;;13.60;6.50;;;;;;;;;;5050393;28;20032;-61
2022/03/05 10:18:30;;;;;;;15.68;7.13;;;;;;;;;;5058432;28;20115;-60
2022/03/05 10:20:56;;;;;;;18.63;7.35;;;;;;;;;;5052024;28;20763;-60
2022/03/05 10:23:21;;;;;;;15.00;7.03;;;;;;;;;;5056450;28;20124;-61
2022/03/05 10:25:50;;;;;;;15.60;7.32;;;;;;;;;;5053997;28;20115;-61
2022/03/05 10:28:26;;;;;;;14.75;6.70;;;;;;;;;;5060254;28;20030;-62
2022/03/05 10:31:03;;;;;;;14.27;6.45;;;;;;;;;;5052769;28;20033;-60
2022/03/05 10:33:33;;;;;;;14.77;7.20;;;;;;;;;;5060164;28;20387;-61
2022/03/05 10:36:01;;;;;;;17.83;8.43;;;;;;;;;;5055058;28;20057;-60
2022/03/05 10:38:46;;;;;;;16.27;7.68;;;;;;;;;;5054716;28;20042;-60
2022/03/05 10:41:17;;;;;;;15.93;8.00;;;;;;;;;;5053882;28;20147;-60
2022/03/05 10:43:45;;;;;;;13.20;7.15;;;;;;;;;;5060426;28;20409;-61
2022/03/05 10:46:10;;;;;;;14.45;6.97;;;;;;;;;;5063449;28;20079;-62
2022/03/05 10:48:42;;;;;;;16.80;7.88;;;;;;;;;;5058009;28;20033;-62
2022/03/05 10:51:13;;;;;;;16.17;7.68;;;;;;;;;;5055948;28;20047;-60
2022/03/05 10:53:47;;;;;;;12.98;6.38;;;;;;;;;;5057559;28;20042;-63
2022/03/05 10:56:27;;;;;;;15.48;7.05;;;;;;;;;;5051802;28;20070;-63
2022/03/05 10:59:13;;;;;;;17.77;7.25;;;;;;;;;;5058814;28;20043;-61
2022/03/05 11:01:43;;;;;;;15.48;7.50;;;;;;;;;;5063018;28;20033;-62
2022/03/05 11:04:10;;;;;;;13.85;7.70;;;;;;;;;;5067530;28;20392;-61
2022/03/05 11:06:46;;;;;;;16.45;7.97;;;;;;;;;;5066416;28;20078;-63
2022/03/05 11:09:12;;;;;;;15.38;7.55;;;;;;;;;;5056725;28;20024;-62
2022/03/05 11:11:40;;;;;;;17.63;7.82;;;;;;;;;;5064473;28;20080;-60
2022/03/05 11:14:10;;;;;;;14.90;7.53;;;;;;;;;;5065037;28;20170;-60
2022/03/05 11:16:36;;;;;;;18.00;7.95;;;;;;;;;;5057310;28;20503;-61
2022/03/05 11:19:03;;;;;;;16.73;8.90;;;;;;;;;;5062600;28;20035;-61
2022/03/05 11:21:29;;;;;;;15.27;7.60;;;;;;;;;;5065536;28;20024;-63
2022/03/05 11:23:57;;;;;;;14.90;8.00;;;;;;;;;;5063599;28;20043;-61
2022/03/05 11:26:23;;;;;;;15.82;8.00;;;;;;;;;;5060907;28;20019;-62
2022/03/05 11:28:51;;;;;;;14.77;7.80;;;;;;;;;;5059706;28;20047;-63
2022/03/05 11:31:31;;;;;;;14.82;8.35;;;;;;;;;;5065330;28;20031;-61
2022/03/05 11:34:11;;;;;;;18.38;8.80;;;;;;;;;;5062618;28;20295;-60
2022/03/05 11:36:38;;;;;;;15.20;8.82;;;;;;;;;;5059145;28;20021;-62
2022/03/05 11:39:07;;;;;;;18.88;9.10;;;;;;;;;;5051192;28;20528;-60
2022/03/05 11:41:32;;;;;;;13.57;7.63;;;;;;;;;;5059438;28;20036;-61
2022/03/05 11:44:14;;;;;;;16.55;7.95;;;;;;;;;;5053163;28;20035;-60
2022/03/05 11:46:40;;;;;;;17.38;8.68;;;;;;;;;;5061872;28;20438;-60
2022/03/05 11:49:07;;;;;;;16.67;9.02;;;;;;;;;;5057696;28;20031;-62
2022/03/05 11:51:34;;;;;;;16.75;9.02;;;;;;;;;;5058197;28;20032;-61
2022/03/05 11:54:14;;;;;;;18.85;9.73;;;;;;;;;;5055452;28;20460;-65
2022/03/05 11:57:08;;;;;;;19.45;8.43;;;;;;;;;;5055974;28;20025;-60
2022/03/05 11:59:36;;;;;;;17.17;8.90;;;;;;;;;;5059560;28;20033;-63
2022/03/05 12:02:02;;;;;;;17.80;9.20;;;;;;;;;;5055863;28;20108;-59
2022/03/05 12:04:29;;;;;;;17.85;9.48;;;;;;;;;;5060091;28;20035;-62
2022/03/05 12:07:00;;;;;;;18.33;9.63;;;;;;;;;;5066465;28;20467;-60
2022/03/05 12:09:40;;;;;;;18.45;9.38;;;;;;;;;;5059859;28;20379;-62
2022/03/05 12:12:16;;;;;;;19.52;9.65;;;;;;;;;;5055333;28;20495;-62
2022/03/05 12:14:59;;;;;;;16.63;8.82;;;;;;;;;;5057870;28;20415;-61
2022/03/05 12:17:26;;;;;;;16.17;9.13;;;;;;;;;;5064061;28;20035;-60
2022/03/05 12:19:53;;;;;;;16.27;9.13;;;;;;;;;;5061421;28;20033;-62
2022/03/05 12:22:19;;;;;;;18.35;10.13;;;;;;;;;;5064878;28;20056;-65
2022/03/05 12:24:45;;;;;;;17.02;9.70;;;;;;;;;;5059754;28;20519;-64
2022/03/05 12:27:17;;;;;;;15.13;9.00;;;;;;;;;;5063329;28;20027;-62
2022/03/05 12:29:47;;;;;;;18.95;9.55;;;;;;;;;;5058086;28;20032;-62
2022/03/05 12:32:13;;;;;;;;;;;;;;;;;;5058305;28;20039;-61
2022/03/05 12:34:38;;;;;;;18.65;9.65;;;;;;;;;;5055097;28;19912;-62
2022/03/05 12:37:04;;;;;;;18.63;10.38;;;;;;;;;;5062765;28;20028;-62
2022/03/05 12:39:30;;;;;;;17.25;9.73;;;;;;;;;;5055021;28;20365;-61
2022/03/05 12:41:55;;;;;;;18.50;10.15;;;;;;;;;;5063028;28;20111;-63
2022/03/05 12:44:21;;;;;;;17.10;9.38;;;;;;;;;;5059477;28;20062;-61
2022/03/05 12:46:47;;;;;;;17.83;9.50;;;;;;;;;;5056772;28;20111;-63
2022/03/05 12:49:12;;;;;;;14.60;8.90;;;;;;;;;;5062476;28;20063;-64
2022/03/05 12:51:38;;;;;;;18.75;9.85;;;;;;;;;;5059238;28;20045;-63
2022/03/05 12:54:05;;;;;;;21.30;11.65;;;;;;;;;;5059824;28;20476;-62
2022/03/05 12:56:30;;;;;;;21.55;10.45;;;;;;;;;;5049650;28;20025;-62
2022/03/05 12:58:57;;;;;;;22.83;11.90;;;;;;;;;;5059941;28;20028;-63
2022/03/05 13:01:23;;;;;;;26.27;13.90;;;;;;;;;;5051606;28;20032;-63
2022/03/05 13:03:49;;;;;;;19.73;10.80;;;;;;;;;;5055895;28;20051;-63
2022/03/05 13:06:18;;;;;;;16.70;10.27;;;;;;;;;;5059977;28;20147;-63
2022/03/05 13:08:44;;;;;;;17.17;9.70;;;;;;;;;;5062377;28;20028;-63
2022/03/05 13:11:15;;;;;;;16.17;10.07;;;;;;;;;;5059994;28;20488;-63
2022/03/05 13:13:51;;;;;;;16.05;9.35;;;;;;;;;;5061554;28;20129;-62
2022/03/05 13:16:24;;;;;;;17.08;10.63;;;;;;;;;;5063988;28;20032;-63
2022/03/05 13:18:57;;;;;;;17.38;10.38;;;;;;;;;;5062470;28;20092;-64
2022/03/05 13:21:24;;;;;;;19.02;11.50;;;;;;;;;;5053752;28;20081;-61
2022/03/05 13:23:49;;;;;;;18.13;10.70;;;;;;;;;;5063589;28;20431;-60
2022/03/05 13:26:15;;;;;;;16.45;10.00;;;;;;;;;;5060003;28;20025;-62
2022/03/05 13:28:41;;;;;;;15.95;9.65;;;;;;;;;;5054465;28;20031;-62
2022/03/05 13:31:07;;;;;;;14.13;8.38;;;;;;;;;;5051811;28;20100;-61
2022/03/05 13:33:46;;;;;;;17.05;9.93;;;;;;;;;;5056059;28;20206;-62
2022/03/05 13:36:14;;;;;;;17.58;10.25;;;;;;;;;;5059408;28;20025;-61
2022/03/05 13:38:40;;;;;;;17.45;9.75;;;;;;;;;;5059594;28;20063;-61
2022/03/05 13:41:11;;;;;;;18.65;9.80;;;;;;;;;;5059204;28;20102;-61
2022/03/05 13:43:39;;;;;;;16.00;9.60;;;;;;;;;;5054993;28;20068;-62
2022/03/05 13:46:06;;;;;;;16.15;9.68;;;;;;;;;;5061208;28;20111;-62
2022/03/05 13:48:44;;;;;;;16.52;9.77;;;;;;;;;;5057093;28;20036;-62
2022/03/05 13:51:16;;;;;;;16.27;9.60;;;;;;;;;;5051364;28;20033;-61
2022/03/05 13:53:43;;;;;;;17.23;9.30;;;;;;;;;;5050570;28;20040;-63
2022/03/05 13:56:09;;;;;;;15.73;8.82;;;;;;;;;;5061634;28;20564;-62
2022/03/05 13:58:35;;;;;;;15.18;8.85;;;;;;;;;;5058314;28;20064;-62
2022/03/05 14:01:01;;;;;;;15.82;9.07;;;;;;;;;;5052154;28;20032;-61
2022/03/05 14:03:26;;;;;;;16.20;9.43;;;;;;;;;;5064318;28;20028;-61
2022/03/05 14:05:52;;;;;;;16.85;9.90;;;;;;;;;;5059069;28;20455;-61
2022/03/05 14:08:17;;;;;;;17.25;10.88;;;;;;;;;;5055184;28;20032;-61
2022/03/05 14:10:47;;;;;;;16.45;10.07;;;;;;;;;;5049211;28;20322;-61
2022/03/05 14:13:24;;;;;;;16.30;9.60;;;;;;;;;;5059761;28;20480;-63
2022/03/05 14:15:50;;;;;;;15.85;9.68;;;;;;;;;;5060506;28;20093;-63
2022/03/05 14:18:15;;;;;;;16.17;9.18;;;;;;;;;;5055578;28;20444;-65
2022/03/05 14:20:49;;;;;;;16.33;9.90;;;;;;;;;;5057899;28;20108;-65
2022/03/05 14:23:20;;;;;;;18.52;10.00;;;;;;;;;;5055812;28;20021;-65
2022/03/05 14:25:52;;;;;;;17.40;8.75;;;;;;;;;;5052259;28;20047;-64
2022/03/05 14:28:24;;;;;;;106.63;13.20;;;;;;;;;;5053509;28;20039;-64